Time;durP1;ratioP1;P1;durP2;ratioP2;P2;SDS_P1;SDS_P2;PMS_P1;PMS_P2;Temp;Humidity;BMP_temperature;BMP_pressure;BME280_temperature;BME280_humidity;BME280_pressure;Samples;Min_cycle;Max_cycle;Signal;HPM_P1;HPM_P2
2022/06/18 00:02:24;;;;;;;;;;;;;;;;;;4902186;29;20014;-76
2022/06/18 00:04:49;;;;;;;;;;;;;;;;;;4934952;29;19990;-76
2022/06/18 00:07:19;;;;;;;;;;;;;;;;;;4935113;29;19926;-76
2022/06/18 00:09:55;;;;;;;;;;;;;;;;;;4935130;29;20349;-76
2022/06/18 00:15:18;;;;;;;;;;;;;;;;;;4933009;29;19922;-76
2022/06/18 00:17:44;;;;;;;;;;;;;;;;;;4917745;28;19922;-76
2022/06/18 00:20:11;;;;;;;;;;;;;;;;;;4934616;29;20419;-76
2022/06/18 00:22:36;;;;;;;;;;;;;;;;;;4917623;29;20411;-76
2022/06/18 00:25:06;;;;;;;;;;;;;;;;;;4932904;28;19958;-76
2022/06/18 00:27:31;;;;;;;;;;;;;;;;;;4918454;29;19958;-76
2022/06/18 00:29:57;;;;;;;;;;;;;;;;;;4935159;29;19973;-76
2022/06/18 00:32:22;;;;;;;;;;;;;;;;;;4919433;29;19974;-76
2022/06/18 00:34:47;;;;;;;;;;;;;;;;;;4935350;29;19919;-76
2022/06/18 00:37:15;;;;;;;;;;;;;;;;;;4935247;29;20285;-76
2022/06/18 00:39:40;;;;;;;;;;;;;;;;;;4935397;29;19919;-76
2022/06/18 00:42:08;;;;;;;;;;;;;;;;;;4923051;29;19930;-76
2022/06/18 00:44:34;;;;;;;;;;;;;;;;;;4923012;29;20357;-76
2022/06/18 00:47:18;;;;;;;;;;;;;;;;;;4938969;29;19918;-76
2022/06/18 00:49:47;;;;;;;;;;;;;;;;;;4938837;28;19918;-76
2022/06/18 00:52:18;;;;;;;;;;;;;;;;;;4937960;29;20012;-76
2022/06/18 00:54:46;;;;;;;;;;;;;;;;;;4938823;28;19918;-76
2022/06/18 00:57:28;;;;;;;;;;;;;;;;;;4938709;29;20277;-76
2022/06/18 00:59:56;;;;;;;;;;;;;;;;;;4939635;29;20018;-76
2022/06/18 01:02:28;;;;;;;;;;;;;;;;;;4922591;29;19926;-76
2022/06/18 01:04:53;;;;;;;;;;;;;;;;;;4938563;29;20087;-76
2022/06/18 01:07:30;;;;;;;;;;;;;;;;;;4939435;29;19982;-76
2022/06/18 01:09:57;;;;;;;;;;;;;;;;;;4938459;29;19923;-77
2022/06/18 01:12:24;;;;;;;;;;;;;;;;;;4938528;29;19918;-76
2022/06/18 01:14:51;;;;;;;;;;;;;;;;;;4938339;29;19954;-76
2022/06/18 01:17:18;;;;;;;;;;;;;;;;;;4938611;29;20348;-76
2022/06/18 01:19:44;;;;;;;;;;;;;;;;;;4938250;28;20376;-76
2022/06/18 01:22:27;;;;;;;;;;;;;;;;;;4937910;28;19929;-76
2022/06/18 01:24:55;;;;;;;;;;;;;;;;;;4938233;28;19918;-76
2022/06/18 01:27:21;;;;;;;;;;;;;;;;;;4927242;29;19919;-76
2022/06/18 01:29:48;;;;;;;;;;;;;;;;;;4958515;29;19922;-76
2022/06/18 01:32:15;;;;;;;;;;;;;;;;;;4941273;28;19919;-76
2022/06/18 01:34:42;;;;;;;;;;;;;;;;;;4957375;28;20398;-76
2022/06/18 01:37:08;;;;;;;;;;;;;;;;;;4957032;29;19918;-76
2022/06/18 01:39:39;;;;;;;;;;;;;;;;;;4957091;29;19958;-76
2022/06/18 01:42:08;;;;;;;;;;;;;;;;;;4956769;29;19946;-76
2022/06/18 01:44:38;;;;;;;;;;;;;;;;;;4957147;29;19918;-76
2022/06/18 01:47:14;;;;;;;;;;;;;;;;;;4940970;28;19925;-76
2022/06/18 01:49:42;;;;;;;;;;;;;;;;;;4956852;28;19918;-76
2022/06/18 01:52:09;;;;;;;;;;;;;;;;;;4956246;28;19919;-75
2022/06/18 01:54:43;;;;;;;;;;;;;;;;;;4956938;29;19922;-76
2022/06/18 01:57:11;;;;;;;;;;;;;;;;;;4951883;28;19919;-76
2022/06/18 01:59:40;;;;;;;;;;;;;;;;;;4921793;29;20010;-76
2022/06/18 02:02:06;;;;;;;;;;;;;;;;;;4937422;28;19929;-76
2022/06/18 02:04:33;;;;;;;;;;;;;;;;;;4921880;29;19919;-76
2022/06/18 02:06:58;;;;;;;;;;;;;;;;;;4937415;28;19919;-76
2022/06/18 02:09:32;;;;;;;;;;;;;;;;;;4921561;29;19919;-76
2022/06/18 02:12:00;;;;;;;;;;;;;;;;;;4921208;29;19923;-76
2022/06/18 02:14:26;;;;;;;;;;;;;;;;;;4937373;28;19941;-76
2022/06/18 02:16:53;;;;;;;;;;;;;;;;;;4921456;29;19918;-76
2022/06/18 02:19:18;;;;;;;;;;;;;;;;;;4937358;29;19930;-76
2022/06/18 02:21:46;;;;;;;;;;;;;;;;;;4938135;29;19919;-76
2022/06/18 02:24:11;;;;;;;;;;;;;;;;;;4936648;29;19919;-76
2022/06/18 02:26:40;;;;;;;;;;;;;;;;;;4936999;28;19926;-76
2022/06/18 02:29:09;;;;;;;;;;;;;;;;;;4936869;28;19919;-76
2022/06/18 02:31:38;;;;;;;;;;;;;;;;;;4936793;29;20004;-76
2022/06/18 02:34:08;;;;;;;;;;;;;;;;;;4921092;29;19970;-76
2022/06/18 02:36:34;;;;;;;;;;;;;;;;;;4921038;29;19919;-76
2022/06/18 02:39:09;;;;;;;;;;;;;;;;;;4920993;28;19918;-76
2022/06/18 02:41:40;;;;;;;;;;;;;;;;;;4920829;29;19923;-76
2022/06/18 02:44:06;;;;;;;;;;;;;;;;;;4920562;29;20014;-76
2022/06/18 02:46:32;;;;;;;;;;;;;;;;;;4936758;29;19962;-76
2022/06/18 02:49:00;;;;;;;;;;;;;;;;;;4920977;29;19919;-76
2022/06/18 02:51:27;;;;;;;;;;;;;;;;;;4936460;29;19922;-76
2022/06/18 02:53:54;;;;;;;;;;;;;;;;;;4937072;29;20158;-76
2022/06/18 02:56:20;;;;;;;;;;;;;;;;;;4936506;29;19918;-76
2022/06/18 02:58:46;;;;;;;;;;;;;;;;;;4936435;29;20439;-76
2022/06/18 03:01:14;;;;;;;;;;;;;;;;;;4936229;28;20400;-76
2022/06/18 03:03:42;;;;;;;;;;;;;;;;;;4935516;29;20371;-76
2022/06/18 03:06:08;;;;;;;;;;;;;;;;;;4937611;29;19919;-76
2022/06/18 03:08:34;;;;;;;;;;;;;;;;;;4935988;28;20017;-75
2022/06/18 03:13:45;;;;;;;;;;;;;;;;;;4936408;28;19961;-76
2022/06/18 03:16:13;;;;;;;;;;;;;;;;;;4936001;29;19958;-76
2022/06/18 03:18:39;;;;;;;;;;;;;;;;;;4935762;29;19919;-76
2022/06/18 03:21:15;;;;;;;;;;;;;;;;;;4920172;29;19918;-76
2022/06/18 03:23:44;;;;;;;;;;;;;;;;;;4935677;29;20304;-76
2022/06/18 03:26:11;;;;;;;;;;;;;;;;;;4935846;28;19918;-76
2022/06/18 03:28:36;;;;;;;;;;;;;;;;;;4935016;28;19922;-76
2022/06/18 03:31:02;;;;;;;;;;;;;;;;;;4919965;29;20026;-76
2022/06/18 03:33:29;;;;;;;;;;;;;;;;;;4920494;29;20325;-76
2022/06/18 03:35:55;;;;;;;;;;;;;;;;;;4904325;29;19926;-78
2022/06/18 03:38:20;;;;;;;;;;;;;;;;;;4935887;29;19919;-76
2022/06/18 03:40:51;;;;;;;;;;;;;;;;;;4932270;29;20368;-76
2022/06/18 03:43:18;;;;;;;;;;;;;;;;;;4932351;29;20389;-76
2022/06/18 03:45:44;;;;;;;;;;;;;;;;;;4916977;29;19991;-76
2022/06/18 03:48:38;;;;;;;;;;;;;;;;;;4917227;29;20476;-76
2022/06/18 03:51:04;;;;;;;;;;;;;;;;;;4914002;29;19922;-76
2022/06/18 03:53:33;;;;;;;;;;;;;;;;;;4930477;28;19955;-76
2022/06/18 03:55:58;;;;;;;;;;;;;;;;;;4930227;29;20401;-76
2022/06/18 03:58:24;;;;;;;;;;;;;;;;;;4915619;29;19919;-76
2022/06/18 04:00:50;;;;;;;;;;;;;;;;;;4917522;29;20403;-76
2022/06/18 04:03:15;;;;;;;;;;;;;;;;;;4933289;29;19919;-76
2022/06/18 04:05:41;;;;;;;;;;;;;;;;;;4917599;29;20571;-76
2022/06/18 04:08:08;;;;;;;;;;;;;;;;;;4934318;29;19981;-76
2022/06/18 04:10:43;;;;;;;;;;;;;;;;;;4918487;29;20055;-76
2022/06/18 04:13:08;;;;;;;;;;;;;;;;;;4933298;29;20009;-76
2022/06/18 04:15:53;;;;;;;;;;;;;;;;;;4937460;28;19919;-76
2022/06/18 04:18:31;;;;;;;;;;;;;;;;;;4939543;28;19919;-76
2022/06/18 04:20:59;;;;;;;;;;;;;;;;;;4939593;28;19923;-76
2022/06/18 04:23:27;;;;;;;;;;;;;;;;;;4925042;29;19974;-75
2022/06/18 04:25:53;;;;;;;;;;;;;;;;;;4941671;29;19957;-76
2022/06/18 04:28:18;;;;;;;;;;;;;;;;;;4925449;29;19919;-76
2022/06/18 04:30:52;;;;;;;;;;;;;;;;;;4941555;28;19923;-76
2022/06/18 04:33:32;;;;;;;;;;;;;;;;;;4928008;29;20336;-76
2022/06/18 04:36:20;;;;;;;;;;;;;;;;;;4943174;29;20395;-76
2022/06/18 04:38:46;;;;;;;;;;;;;;;;;;4941518;29;19922;-76
2022/06/18 04:41:24;;;;;;;;;;;;;;;;;;4941233;29;20266;-76
2022/06/18 04:43:59;;;;;;;;;;;;;;;;;;4941646;28;19919;-76
2022/06/18 04:46:25;;;;;;;;;;;;;;;;;;4941540;28;19919;-76
2022/06/18 04:48:51;;;;;;;;;;;;;;;;;;4942917;29;19914;-76
2022/06/18 04:51:17;;;;;;;;;;;;;;;;;;4957063;29;19926;-76
2022/06/18 04:53:42;;;;;;;;;;;;;;;;;;4929556;28;19998;-76
2022/06/18 04:56:09;;;;;;;;;;;;;;;;;;4938296;29;19926;-76
2022/06/18 04:58:37;;;;;;;;;;;;;;;;;;4922704;29;20285;-76
2022/06/18 05:01:02;;;;;;;;;;;;;;;;;;4922429;29;20391;-76
2022/06/18 05:03:57;;;;;;;;;;;;;;;;;;4931584;29;19927;-76
2022/06/18 05:06:33;;;;;;;;;;;;;;;;;;4938133;29;19954;-76
2022/06/18 05:09:06;;;;;;;;;;;;;;;;;;4923132;29;19925;-76
2022/06/18 05:11:47;;;;;;;;;;;;;;;;;;4922156;29;19998;-76
2022/06/18 05:14:31;;;;;;;;;;;;;;;;;;4922647;29;20036;-76
2022/06/18 05:17:02;;;;;;;;;;;;;;;;;;4923484;29;19926;-77
2022/06/18 05:19:31;;;;;;;;;;;;;;;;;;4926962;29;19919;-77
2022/06/18 05:22:00;;;;;;;;;;;;;;;;;;4923563;29;20269;-77
2022/06/18 05:24:27;;;;;;;;;;;;;;;;;;4939838;29;20006;-76
2022/06/18 05:26:55;;;;;;;;;;;;;;;;;;4935531;29;19919;-76
2022/06/18 05:29:20;;;;;;;;;;;;;;;;;;4935134;29;19915;-76
2022/06/18 05:31:45;;;;;;;;;;;;;;;;;;4920201;29;19973;-76
2022/06/18 05:34:12;;;;;;;;;;;;;;;;;;4935125;29;20601;-78
2022/06/18 05:36:39;;;;;;;;;;;;;;;;;;4919229;29;19919;-77
2022/06/18 05:39:05;;;;;;;;;;;;;;;;;;4934641;29;20400;-75
2022/06/18 05:41:30;;;;;;;;;;;;;;;;;;4934630;29;19923;-77
2022/06/18 05:43:56;;;;;;;;;;;;;;;;;;4904731;29;19927;-79
2022/06/18 05:46:21;;;;;;;;;;;;;;;;;;4929311;29;20338;-79
2022/06/18 05:48:47;;;;;;;;;;;;;;;;;;4913187;29;19919;-79
2022/06/18 05:51:13;;;;;;;;;;;;;;;;;;4922805;29;19923;-77
2022/06/18 05:53:39;;;;;;;;;;;;;;;;;;4927247;29;19923;-79
2022/06/18 05:56:24;;;;;;;;;;;;;;;;;;4932795;29;19926;-79
2022/06/18 05:59:10;;;;;;;;;;;;;;;;;;4932055;29;20389;-79
2022/06/18 06:01:37;;;;;;;;;;;;;;;;;;4932646;29;19919;-80
2022/06/18 06:04:03;;;;;;;;;;;;;;;;;;4932571;29;19919;-79
2022/06/18 06:06:30;;;;;;;;;;;;;;;;;;4931117;29;19919;-79
2022/06/18 06:08:55;;;;;;;;;;;;;;;;;;4933870;29;19971;-80
2022/06/18 06:11:30;;;;;;;;;;;;;;;;;;4948863;29;19923;-79
2022/06/18 06:13:57;;;;;;;;;;;;;;;;;;4931612;29;19923;-78
2022/06/18 06:16:23;;;;;;;;;;;;;;;;;;4934890;29;19946;-80
2022/06/18 06:18:49;;;;;;;;;;;;;;;;;;4935911;29;19967;-81
2022/06/18 06:21:15;;;;;;;;;;;;;;;;;;4930727;29;19919;-79
2022/06/18 06:23:41;;;;;;;;;;;;;;;;;;4938180;29;19942;-79
2022/06/18 06:26:15;;;;;;;;;;;;;;;;;;4950755;29;19923;-79
2022/06/18 06:28:43;;;;;;;;;;;;;;;;;;4948749;29;19914;-80
2022/06/18 06:31:08;;;;;;;;;;;;;;;;;;4928726;29;19973;-78
2022/06/18 06:33:34;;;;;;;;;;;;;;;;;;4937819;29;19918;-77
2022/06/18 06:35:59;;;;;;;;;;;;;;;;;;4948098;29;19967;-78
2022/06/18 06:38:24;;;;;;;;;;;;;;;;;;4941155;29;20009;-78
2022/06/18 06:40:50;;;;;;;;;;;;;;;;;;4947590;29;20365;-78
2022/06/18 06:43:16;;;;;;;;;;;;;;;;;;4924740;29;19919;-77
2022/06/18 06:45:43;;;;;;;;;;;;;;;;;;4945092;29;19922;-77
2022/06/18 06:48:08;;;;;;;;;;;;;;;;;;4932858;29;19925;-80
2022/06/18 06:50:34;;;;;;;;;;;;;;;;;;4958767;29;20368;-79
2022/06/18 06:53:00;;;;;;;;;;;;;;;;;;4938891;28;19919;-78
2022/06/18 06:58:13;;;;;;;;;;;;;;;;;;4939539;28;19919;-77
2022/06/18 07:00:41;;;;;;;;;;;;;;;;;;4923557;29;19919;-78
2022/06/18 07:03:06;;;;;;;;;;;;;;;;;;4925646;29;19919;-78
2022/06/18 07:05:31;;;;;;;;;;;;;;;;;;4907794;29;19925;-78
2022/06/18 07:07:57;;;;;;;;;;;;;;;;;;4922632;29;19919;-78
2022/06/18 07:10:22;;;;;;;;;;;;;;;;;;4923391;29;19929;-78
2022/06/18 07:12:47;;;;;;;;;;;;;;;;;;4903181;29;19966;-77
2022/06/18 07:15:13;;;;;;;;;;;;;;;;;;4918686;29;20360;-76
2022/06/18 07:17:38;;;;;;;;;;;;;;;;;;4918102;29;20018;-76
2022/06/18 07:20:04;;;;;;;;;;;;;;;;;;4917282;29;19921;-78
2022/06/18 07:22:31;;;;;;;;;;;;;;;;;;4942252;29;19919;-77
2022/06/18 07:24:56;;;;;;;;;;;;;;;;;;4917326;29;20448;-77
2022/06/18 07:27:22;;;;;;;;;;;;;;;;;;4915837;29;20017;-76
2022/06/18 07:29:47;;;;;;;;;;;;;;;;;;4918900;29;20016;-77
2022/06/18 07:32:14;;;;;;;;;;;;;;;;;;4936703;29;19919;-76
2022/06/18 07:34:40;;;;;;;;;;;;;;;;;;4932839;29;19919;-76
2022/06/18 07:37:05;;;;;;;;;;;;;;;;;;4915572;29;19926;-76
2022/06/18 07:39:31;;;;;;;;;;;;;;;;;;4914862;28;19919;-76
2022/06/18 07:41:56;;;;;;;;;;;;;;;;;;4915286;29;19962;-76
2022/06/18 07:44:22;;;;;;;;;;;;;;;;;;4914724;29;19919;-76
2022/06/18 07:46:47;;;;;;;;;;;;;;;;;;4915608;29;19931;-76
2022/06/18 07:49:13;;;;;;;;;;;;;;;;;;4914422;29;19970;-76
2022/06/18 07:51:39;;;;;;;;;;;;;;;;;;4930214;29;19985;-76
2022/06/18 07:54:04;;;;;;;;;;;;;;;;;;4914381;29;19951;-76
2022/06/18 07:56:30;;;;;;;;;;;;;;;;;;4919267;29;19922;-76
2022/06/18 07:58:55;;;;;;;;;;;;;;;;;;4935184;28;19919;-76
2022/06/18 08:01:21;;;;;;;;;;;;;;;;;;4935457;28;19918;-76
2022/06/18 08:03:46;;;;;;;;;;;;;;;;;;4936872;29;19923;-76
2022/06/18 08:06:11;;;;;;;;;;;;;;;;;;4935429;29;20360;-76
2022/06/18 08:08:37;;;;;;;;;;;;;;;;;;4935622;29;19922;-76
2022/06/18 08:11:05;;;;;;;;;;;;;;;;;;4935361;28;19930;-76
2022/06/18 08:13:30;;;;;;;;;;;;;;;;;;4919468;29;19919;-76
2022/06/18 08:15:55;;;;;;;;;;;;;;;;;;4935493;29;19919;-76
2022/06/18 08:18:21;;;;;;;;;;;;;;;;;;4935289;29;20063;-76
2022/06/18 08:20:46;;;;;;;;;;;;;;;;;;4935247;29;20045;-76
2022/06/18 08:23:11;;;;;;;;;;;;;;;;;;4936441;29;19926;-77
2022/06/18 08:25:39;;;;;;;;;;;;;;;;;;4921197;29;19923;-76
2022/06/18 08:28:05;;;;;;;;;;;;;;;;;;4916416;29;19920;-76
2022/06/18 08:30:32;;;;;;;;;;;;;;;;;;4916284;29;19962;-76
2022/06/18 08:32:57;;;;;;;;;;;;;;;;;;4916397;29;20345;-76
2022/06/18 08:35:22;;;;;;;;;;;;;;;;;;4917497;29;19967;-76
2022/06/18 08:37:49;;;;;;;;;;;;;;;;;;4900752;29;19919;-77
2022/06/18 08:40:34;;;;;;;;;;;;;;;;;;4921005;29;19930;-76
2022/06/18 08:43:18;;;;;;;;;;;;;;;;;;4935783;29;19948;-76
2022/06/18 08:46:02;;;;;;;;;;;;;;;;;;4919199;29;19919;-76
2022/06/18 08:48:47;;;;;;;;;;;;;;;;;;4919493;29;19919;-77
2022/06/18 08:51:31;;;;;;;;;;;;;;;;;;4936207;29;20325;-77
2022/06/18 08:54:05;;;;;;;;;;;;;;;;;;4935583;29;20372;-76
2022/06/18 08:56:34;;;;;;;;;;;;;;;;;;4934892;29;19923;-77
2022/06/18 08:59:18;;;;;;;;;;;;;;;;;;4919273;29;20301;-76
2022/06/18 09:01:51;;;;;;;;;;;;;;;;;;4919353;28;19925;-76
2022/06/18 09:04:49;;;;;;;;;;;;;;;;;;4939911;29;19966;-76
2022/06/18 09:07:14;;;;;;;;;;;;;;;;;;4917518;29;20372;-76
2022/06/18 09:09:51;;;;;;;;;;;;;;;;;;4939706;29;19926;-76
2022/06/18 09:12:23;;;;;;;;;;;;;;;;;;4938408;29;20360;-76
2022/06/18 09:14:58;;;;;;;;;;;;;;;;;;4939732;29;20029;-77
2022/06/18 09:17:25;;;;;;;;;;;;;;;;;;4939469;29;19942;-77
2022/06/18 09:19:56;;;;;;;;;;;;;;;;;;4939616;29;19982;-77
2022/06/18 09:22:21;;;;;;;;;;;;;;;;;;4921788;29;20344;-77
2022/06/18 09:24:48;;;;;;;;;;;;;;;;;;4940823;28;19926;-78
2022/06/18 09:27:21;;;;;;;;;;;;;;;;;;4957364;29;19918;-77
2022/06/18 09:29:54;;;;;;;;;;;;;;;;;;4957450;29;19922;-77
2022/06/18 09:32:24;;;;;;;;;;;;;;;;;;4957062;29;19922;-77
2022/06/18 09:34:56;;;;;;;;;;;;;;;;;;4957203;29;19918;-77
2022/06/18 09:37:23;;;;;;;;;;;;;;;;;;4956916;29;19942;-77
2022/06/18 09:39:50;;;;;;;;;;;;;;;;;;4956872;29;19918;-77
2022/06/18 09:42:28;;;;;;;;;;;;;;;;;;4958353;28;20020;-77
2022/06/18 09:44:58;;;;;;;;;;;;;;;;;;4958309;29;20001;-77
2022/06/18 09:47:41;;;;;;;;;;;;;;;;;;4957003;29;20309;-77
2022/06/18 09:50:32;;;;;;;;;;;;;;;;;;4958184;29;19918;-77
2022/06/18 09:53:30;;;;;;;;;;;;;;;;;;4921580;29;19927;-78
2022/06/18 09:56:05;;;;;;;;;;;;;;;;;;4918677;29;20555;-77
2022/06/18 09:58:33;;;;;;;;;;;;;;;;;;4918378;29;19926;-77
2022/06/18 10:01:00;;;;;;;;;;;;;;;;;;4918504;29;19962;-77
2022/06/18 10:09:01;;;;;;;;;;;;;;;;;;4919340;29;19926;-77
2022/06/18 10:11:26;;;;;;;;;;;;;;;;;;4918501;29;19924;-77
2022/06/18 10:13:56;;;;;;;;;;;;;;;;;;4917988;29;19919;-77
2022/06/18 10:16:30;;;;;;;;;;;;;;;;;;4933943;29;20010;-77
2022/06/18 10:19:05;;;;;;;;;;;;;;;;;;4918022;29;19942;-77
2022/06/18 10:21:38;;;;;;;;;;;;;;;;;;4934448;29;19974;-77
2022/06/18 10:24:09;;;;;;;;;;;;;;;;;;4919174;29;19923;-77
2022/06/18 10:26:44;;;;;;;;;;;;;;;;;;4937236;29;19919;-77
2022/06/18 10:29:09;;;;;;;;;;;;;;;;;;4937247;29;19926;-77
2022/06/18 10:31:50;;;;;;;;;;;;;;;;;;4938227;29;19922;-77
2022/06/18 10:34:24;;;;;;;;;;;;;;;;;;4938387;29;19926;-77
2022/06/18 10:37:09;;;;;;;;;;;;;;;;;;4920337;29;19925;-78
2022/06/18 10:39:35;;;;;;;;;;;;;;;;;;4936968;29;19919;-77
2022/06/18 10:42:00;;;;;;;;;;;;;;;;;;4920501;29;19930;-77
2022/06/18 10:44:41;;;;;;;;;;;;;;;;;;4939621;29;20261;-80
2022/06/18 10:47:08;;;;;;;;;;;;;;;;;;4926729;29;19919;-78
2022/06/18 10:49:34;;;;;;;;;;;;;;;;;;4925524;29;19950;-77
2022/06/18 10:52:00;;;;;;;;;;;;;;;;;;4945546;29;19923;-84
2022/06/18 10:54:35;;;;;;;;;;;;;;;;;;4926333;29;19953;-84
2022/06/18 10:57:00;;;;;;;;;;;;;;;;;;4942427;29;19919;-83
2022/06/18 10:59:30;;;;;;;;;;;;;;;;;;4943000;29;19926;-84
2022/06/18 11:02:00;;;;;;;;;;;;;;;;;;4940480;29;19918;-82
2022/06/18 11:04:28;;;;;;;;;;;;;;;;;;4940582;28;19926;-85
2022/06/18 11:07:02;;;;;;;;;;;;;;;;;;4940019;28;20374;-84
2022/06/18 11:09:28;;;;;;;;;;;;;;;;;;4942730;28;19930;-81
2022/06/18 11:11:58;;;;;;;;;;;;;;;;;;4944009;29;19970;-80
2022/06/18 11:14:24;;;;;;;;;;;;;;;;;;4944730;28;20455;-77
2022/06/18 11:16:55;;;;;;;;;;;;;;;;;;4941911;29;19954;-79
2022/06/18 11:19:29;;;;;;;;;;;;;;;;;;4940788;29;19966;-80
2022/06/18 11:21:54;;;;;;;;;;;;;;;;;;4938137;29;19923;-78
2022/06/18 11:24:29;;;;;;;;;;;;;;;;;;4937187;29;19925;-78
2022/06/18 11:26:57;;;;;;;;;;;;;;;;;;4921710;29;19990;-77
2022/06/18 11:29:29;;;;;;;;;;;;;;;;;;4921113;29;19919;-78
2022/06/18 11:31:57;;;;;;;;;;;;;;;;;;4921154;29;19929;-78
2022/06/18 11:34:26;;;;;;;;;;;;;;;;;;4919922;29;19926;-78
2022/06/18 11:36:53;;;;;;;;;;;;;;;;;;4922065;29;20009;-78
2022/06/18 11:39:25;;;;;;;;;;;;;;;;;;4937643;29;19958;-78
2022/06/18 11:41:52;;;;;;;;;;;;;;;;;;4920744;29;19923;-78
2022/06/18 11:44:22;;;;;;;;;;;;;;;;;;4921530;29;20300;-78
2022/06/18 11:46:55;;;;;;;;;;;;;;;;;;4921447;29;19923;-78
2022/06/18 11:49:27;;;;;;;;;;;;;;;;;;4921419;29;19925;-78
2022/06/18 11:51:56;;;;;;;;;;;;;;;;;;4935779;29;19928;-78
2022/06/18 11:54:24;;;;;;;;;;;;;;;;;;4940825;29;19919;-78
2022/06/18 11:56:52;;;;;;;;;;;;;;;;;;4920961;29;19926;-78
2022/06/18 11:59:33;;;;;;;;;;;;;;;;;;4937238;29;19966;-77
2022/06/18 12:02:02;;;;;;;;;;;;;;;;;;4938064;29;19923;-77
2022/06/18 12:04:33;;;;;;;;;;;;;;;;;;4938093;29;20017;-78
2022/06/18 12:07:10;;;;;;;;;;;;;;;;;;4937895;29;19919;-78
2022/06/18 12:09:36;;;;;;;;;;;;;;;;;;4920798;29;19926;-78
2022/06/18 12:12:10;;;;;;;;;;;;;;;;;;4938137;29;19923;-78
2022/06/18 12:14:44;;;;;;;;;;;;;;;;;;4920652;29;20021;-78
2022/06/18 12:17:15;;;;;;;;;;;;;;;;;;4919622;29;20293;-77
2022/06/18 12:19:45;;;;;;;;;;;;;;;;;;4936298;29;19926;-78
2022/06/18 12:22:14;;;;;;;;;;;;;;;;;;4938049;29;19919;-78
2022/06/18 12:24:39;;;;;;;;;;;;;;;;;;4952681;29;20376;-78
2022/06/18 12:27:08;;;;;;;;;;;;;;;;;;4957135;29;19919;-78
2022/06/18 12:29:40;;;;;;;;;;;;;;;;;;4956259;28;19918;-78
2022/06/18 12:32:18;;;;;;;;;;;;;;;;;;4955633;28;19933;-78
2022/06/18 12:35:03;;;;;;;;;;;;;;;;;;4957058;29;19969;-78
2022/06/18 12:37:28;;;;;;;;;;;;;;;;;;4959594;28;19918;-78
2022/06/18 12:40:09;;;;;;;;;;;;;;;;;;4943836;29;19925;-78
2022/06/18 12:42:40;;;;;;;;;;;;;;;;;;4959440;28;20345;-78
2022/06/18 12:45:24;;;;;;;;;;;;;;;;;;4961092;29;19942;-78
2022/06/18 12:48:01;;;;;;;;;;;;;;;;;;4959581;28;19919;-78
2022/06/18 12:50:40;;;;;;;;;;;;;;;;;;4951841;29;19970;-78
2022/06/18 12:53:11;;;;;;;;;;;;;;;;;;4940905;29;19919;-78
2022/06/18 12:55:39;;;;;;;;;;;;;;;;;;4939901;29;19918;-78
2022/06/18 12:58:14;;;;;;;;;;;;;;;;;;4941013;29;20001;-78
2022/06/18 13:00:46;;;;;;;;;;;;;;;;;;4931281;29;20412;-78
2022/06/18 13:03:32;;;;;;;;;;;;;;;;;;4949967;29;20349;-77
2022/06/18 13:06:05;;;;;;;;;;;;;;;;;;4960581;29;19929;-78
2022/06/18 13:08:37;;;;;;;;;;;;;;;;;;4959583;29;20327;-78
2022/06/18 13:11:19;;;;;;;;;;;;;;;;;;4958649;28;20028;-77
2022/06/18 13:13:56;;;;;;;;;;;;;;;;;;4959520;29;20494;-78
2022/06/18 13:16:34;;;;;;;;;;;;;;;;;;4959822;29;19918;-78
2022/06/18 13:19:08;;;;;;;;;;;;;;;;;;4941094;29;19925;-76
2022/06/18 13:21:33;;;;;;;;;;;;;;;;;;4942216;28;19948;-75
2022/06/18 13:29:38;;;;;;;;;;;;;;;;;;4950329;28;19919;-80
2022/06/18 13:32:03;;;;;;;;;;;;;;;;;;4941010;29;19923;-81
2022/06/18 13:34:31;;;;;;;;;;;;;;;;;;4924298;29;19970;-81
2022/06/18 13:37:03;;;;;;;;;;;;;;;;;;4940474;29;19942;-80
2022/06/18 13:39:37;;;;;;;;;;;;;;;;;;4925532;29;19919;-81
2022/06/18 13:42:10;;;;;;;;;;;;;;;;;;4940901;29;19966;-79
2022/06/18 13:44:47;;;;;;;;;;;;;;;;;;4923532;28;19923;-77
2022/06/18 13:47:21;;;;;;;;;;;;;;;;;;4940188;28;19925;-78
2022/06/18 13:49:51;;;;;;;;;;;;;;;;;;4944154;29;19977;-79
2022/06/18 13:52:18;;;;;;;;;;;;;;;;;;4945880;28;19923;-76
2022/06/18 13:54:49;;;;;;;;;;;;;;;;;;4946182;29;20341;-76
2022/06/18 13:57:15;;;;;;;;;;;;;;;;;;4947563;29;20017;-76
2022/06/18 13:59:54;;;;;;;;;;;;;;;;;;4953528;28;19918;-76
2022/06/18 14:02:34;;;;;;;;;;;;;;;;;;4955622;28;19930;-80
2022/06/18 14:05:02;;;;;;;;;;;;;;;;;;4954676;29;19957;-80
2022/06/18 14:07:28;;;;;;;;;;;;;;;;;;4947035;29;19923;-79
2022/06/18 14:09:55;;;;;;;;;;;;;;;;;;4940168;29;20040;-78
2022/06/18 14:12:26;;;;;;;;;;;;;;;;;;4938816;29;19931;-76
2022/06/18 14:15:02;;;;;;;;;;;;;;;;;;4921601;29;19922;-76
2022/06/18 14:17:36;;;;;;;;;;;;;;;;;;4937675;29;19922;-76
2022/06/18 14:20:02;;;;;;;;;;;;;;;;;;4938611;29;19923;-76
2022/06/18 14:22:29;;;;;;;;;;;;;;;;;;4938300;29;20040;-76
2022/06/18 14:24:56;;;;;;;;;;;;;;;;;;4948188;28;19919;-76
2022/06/18 14:27:41;;;;;;;;;;;;;;;;;;4921423;29;20254;-77
2022/06/18 14:30:19;;;;;;;;;;;;;;;;;;4918065;29;19930;-76
2022/06/18 14:32:49;;;;;;;;;;;;;;;;;;4921112;29;20289;-77
2022/06/18 14:35:32;;;;;;;;;;;;;;;;;;4938256;29;19919;-77
2022/06/18 14:38:00;;;;;;;;;;;;;;;;;;4937162;29;19918;-77
2022/06/18 14:40:31;;;;;;;;;;;;;;;;;;4937793;29;19962;-76
2022/06/18 14:43:15;;;;;;;;;;;;;;;;;;4938062;29;20350;-77
2022/06/18 14:46:00;;;;;;;;;;;;;;;;;;4935911;28;19918;-76
2022/06/18 14:48:31;;;;;;;;;;;;;;;;;;4936757;29;19923;-77
2022/06/18 14:51:06;;;;;;;;;;;;;;;;;;4936724;29;19923;-76
2022/06/18 14:53:37;;;;;;;;;;;;;;;;;;4936951;29;20417;-76
2022/06/18 14:56:22;;;;;;;;;;;;;;;;;;4936522;29;20399;-76
2022/06/18 14:58:47;;;;;;;;;;;;;;;;;;4920760;29;19922;-76
2022/06/18 15:01:24;;;;;;;;;;;;;;;;;;4937848;29;19926;-76
2022/06/18 15:03:58;;;;;;;;;;;;;;;;;;4937770;29;19919;-76
2022/06/18 15:06:23;;;;;;;;;;;;;;;;;;4920649;29;19918;-76
2022/06/18 15:08:53;;;;;;;;;;;;;;;;;;4904713;29;19991;-76
2022/06/18 15:11:19;;;;;;;;;;;;;;;;;;4937732;29;19930;-76
2022/06/18 15:13:44;;;;;;;;;;;;;;;;;;4936285;29;19918;-76
2022/06/18 15:26:41;;;;;;;;;;;;;;;;;;4940020;29;19919;-75
2022/06/18 15:29:10;;;;;;;;;;;;;;;;;;4945557;29;19927;-76
2022/06/18 15:31:37;;;;;;;;;;;;;;;;;;4943467;29;19938;-76
2022/06/18 15:34:21;;;;;;;;;;;;;;;;;;4944618;29;19922;-76
2022/06/18 15:36:58;;;;;;;;;;;;;;;;;;4946604;29;20369;-76
2022/06/18 15:39:24;;;;;;;;;;;;;;;;;;4945849;29;19925;-76
2022/06/18 15:41:50;;;;;;;;;;;;;;;;;;4942190;29;19926;-76
2022/06/18 15:44:22;;;;;;;;;;;;;;;;;;4937064;29;19919;-76
2022/06/18 15:46:57;;;;;;;;;;;;;;;;;;4935448;29;19925;-76
2022/06/18 15:49:26;;;;;;;;;;;;;;;;;;4936996;29;19977;-76
2022/06/18 15:51:52;;;;;;;;;;;;;;;;;;4942777;29;19922;-76
2022/06/18 15:54:41;;;;;;;;;;;;;;;;;;4945353;29;20009;-76
2022/06/18 15:57:09;;;;;;;;;;;;;;;;;;4940635;28;19922;-76
2022/06/18 15:59:34;;;;;;;;;;;;;;;;;;4946754;29;19918;-76
2022/06/18 16:02:00;;;;;;;;;;;;;;;;;;4944227;29;20006;-77
2022/06/18 16:04:26;;;;;;;;;;;;;;;;;;4945529;29;19925;-75
2022/06/18 16:06:52;;;;;;;;;;;;;;;;;;4945456;28;19919;-75
2022/06/18 16:09:20;;;;;;;;;;;;;;;;;;4946456;29;19922;-75
2022/06/18 16:11:46;;;;;;;;;;;;;;;;;;4941732;28;19930;-75
2022/06/18 16:14:11;;;;;;;;;;;;;;;;;;4945847;29;19919;-75
2022/06/18 16:16:42;;;;;;;;;;;;;;;;;;4935423;29;19923;-75
2022/06/18 16:19:08;;;;;;;;;;;;;;;;;;4935259;28;20404;-75
2022/06/18 16:21:42;;;;;;;;;;;;;;;;;;4936527;29;19942;-76
2022/06/18 16:24:15;;;;;;;;;;;;;;;;;;4935211;29;20009;-76
2022/06/18 16:26:40;;;;;;;;;;;;;;;;;;4934516;29;20571;-76
2022/06/18 16:29:05;;;;;;;;;;;;;;;;;;4936101;29;19946;-76
2022/06/18 16:31:40;;;;;;;;;;;;;;;;;;4936233;29;19922;-76
2022/06/18 16:34:09;;;;;;;;;;;;;;;;;;4934936;29;19918;-75
2022/06/18 16:36:35;;;;;;;;;;;;;;;;;;4919404;29;19970;-75
2022/06/18 16:39:03;;;;;;;;;;;;;;;;;;4934886;29;19923;-75
2022/06/18 16:41:31;;;;;;;;;;;;;;;;;;4936005;29;19927;-75
2022/06/18 16:43:56;;;;;;;;;;;;;;;;;;4934736;29;19918;-76
2022/06/18 16:46:24;;;;;;;;;;;;;;;;;;4919138;29;19919;-75
2022/06/18 16:48:59;;;;;;;;;;;;;;;;;;4927447;29;19918;-75
2022/06/18 16:51:41;;;;;;;;;;;;;;;;;;4934968;29;19929;-75
2022/06/18 16:54:26;;;;;;;;;;;;;;;;;;4936199;29;19918;-75
2022/06/18 16:56:51;;;;;;;;;;;;;;;;;;4935704;29;19923;-75
2022/06/18 16:59:16;;;;;;;;;;;;;;;;;;4938539;29;19985;-75
2022/06/18 17:01:42;;;;;;;;;;;;;;;;;;4927862;29;19919;-75
2022/06/18 17:04:07;;;;;;;;;;;;;;;;;;4937844;28;19969;-75
2022/06/18 17:06:33;;;;;;;;;;;;;;;;;;4934648;29;19961;-75
2022/06/18 17:08:59;;;;;;;;;;;;;;;;;;4936149;29;19919;-75
2022/06/18 17:11:25;;;;;;;;;;;;;;;;;;4934303;29;19923;-75
2022/06/18 17:13:50;;;;;;;;;;;;;;;;;;4935695;29;20387;-75
2022/06/18 17:16:16;;;;;;;;;;;;;;;;;;4918979;29;20013;-75
2022/06/18 17:18:41;;;;;;;;;;;;;;;;;;4934584;29;20014;-74
2022/06/18 17:21:07;;;;;;;;;;;;;;;;;;4935991;29;19935;-76
2022/06/18 17:32:06;;;;;;;;;;;;;;;;;;4939055;29;19926;-75
2022/06/18 17:34:31;;;;;;;;;;;;;;;;;;4922382;29;19915;-75
2022/06/18 17:36:57;;;;;;;;;;;;;;;;;;4938893;29;19918;-74
2022/06/18 17:39:22;;;;;;;;;;;;;;;;;;4921759;29;20009;-75
2022/06/18 17:41:48;;;;;;;;;;;;;;;;;;4921788;29;19994;-74
2022/06/18 17:44:14;;;;;;;;;;;;;;;;;;4921656;29;19919;-75